Time;durP1;ratioP1;P1;durP2;ratioP2;P2;SDS_P1;SDS_P2;PMS_P1;PMS_P2;Temp;Humidity;BMP_temperature;BMP_pressure;BME280_temperature;BME280_humidity;BME280_pressure;Samples;Min_cycle;Max_cycle;Signal;HPM_P1;HPM_P2
2023/10/22 00:02:16;;;;;;;19.73;9.02;;;;;;;;;;5049400;28;20103;-70
2023/10/22 00:04:44;;;;;;;12.15;9.30;;;;;;;;;;5041564;28;20601;-70
2023/10/22 00:07:14;;;;;;;17.70;9.27;;;;;;;;;;5031039;28;20072;-70
2023/10/22 00:09:40;;;;;;;15.80;10.13;;;;;;;;;;5046359;28;20052;-70
2023/10/22 00:12:07;;;;;;;11.23;8.32;;;;;;;;;;5030150;28;20140;-70
2023/10/22 00:14:34;;;;;;;11.98;5.70;;;;;;;;;;5043876;28;20056;-70
2023/10/22 00:17:00;;;;;;;7.20;4.38;;;;;;;;;;5031491;28;20092;-70
2023/10/22 00:19:27;;;;;;;8.60;4.13;;;;;;;;;;5047520;28;20081;-69
2023/10/22 00:21:53;;;;;;;7.05;3.65;;;;;;;;;;5040626;28;20080;-70
2023/10/22 00:24:20;;;;;;;8.38;3.88;;;;;;;;;;5046183;28;20524;-70
2023/10/22 00:26:46;;;;;;;5.63;2.55;;;;;;;;;;5031704;28;20081;-70
2023/10/22 00:29:13;;;;;;;3.80;2.53;;;;;;;;;;5046778;28;20084;-70
2023/10/22 00:31:39;;;;;;;6.78;2.55;;;;;;;;;;5043989;28;20131;-69
2023/10/22 00:34:06;;;;;;;5.32;1.60;;;;;;;;;;5045760;28;20638;-70
2023/10/22 00:36:33;;;;;;;13.20;2.08;;;;;;;;;;5035637;28;20048;-70
2023/10/22 00:38:59;;;;;;;6.47;1.65;;;;;;;;;;5041961;28;20466;-70
2023/10/22 00:41:25;;;;;;;3.60;1.80;;;;;;;;;;5045243;28;20045;-70
2023/10/22 00:43:52;;;;;;;6.03;2.17;;;;;;;;;;5040007;28;20041;-70
2023/10/22 00:46:20;;;;;;;3.88;2.13;;;;;;;;;;5037833;28;20126;-69
2023/10/22 00:48:47;;;;;;;3.92;1.70;;;;;;;;;;5045187;28;20041;-70
2023/10/22 00:51:14;;;;;;;3.63;1.90;;;;;;;;;;5032654;28;20211;-70
2023/10/22 00:53:44;;;;;;;2.90;1.50;;;;;;;;;;5033562;28;20092;-70
2023/10/22 00:56:11;;;;;;;4.53;2.40;;;;;;;;;;5031784;28;20124;-69
2023/10/22 00:58:39;;;;;;;5.35;2.78;;;;;;;;;;5026554;28;20084;-69
2023/10/22 01:01:06;;;;;;;6.63;2.78;;;;;;;;;;5026323;28;20136;-69
2023/10/22 01:03:34;;;;;;;7.63;3.10;;;;;;;;;;5030776;28;20145;-70
2023/10/22 01:06:02;;;;;;;7.68;2.88;;;;;;;;;;5039758;28;20518;-70
2023/10/22 01:08:28;;;;;;;3.78;2.92;;;;;;;;;;5047129;28;20079;-70
2023/10/22 01:11:03;;;;;;;4.70;2.75;;;;;;;;;;5034393;28;20103;-70
2023/10/22 01:13:29;;;;;;;7.20;2.80;;;;;;;;;;5031677;28;20128;-69
2023/10/22 01:15:56;;;;;;;4.18;2.88;;;;;;;;;;5035311;28;20081;-70
2023/10/22 01:18:22;;;;;;;6.65;3.50;;;;;;;;;;5039461;28;20049;-69
2023/10/22 01:20:49;;;;;;;7.45;3.58;;;;;;;;;;5036616;28;20220;-69
2023/10/22 01:23:16;;;;;;;7.85;3.60;;;;;;;;;;5046301;28;20128;-70
2023/10/22 01:25:42;;;;;;;7.82;3.38;;;;;;;;;;5044348;28;20091;-70
2023/10/22 01:28:09;;;;;;;6.63;3.88;;;;;;;;;;5044866;28;20045;-70
2023/10/22 01:30:35;;;;;;;8.68;4.30;;;;;;;;;;5030023;28;20050;-70
2023/10/22 01:33:04;;;;;;;5.85;3.35;;;;;;;;;;5045156;28;20103;-70
2023/10/22 01:35:31;;;;;;;7.28;3.28;;;;;;;;;;5028075;28;20134;-70
2023/10/22 01:37:58;;;;;;;9.10;3.83;;;;;;;;;;5037101;28;20143;-70
2023/10/22 01:40:24;;;;;;;5.78;3.60;;;;;;;;;;5038286;28;20081;-70
2023/10/22 01:42:51;;;;;;;6.25;3.78;;;;;;;;;;5039702;28;20048;-70
2023/10/22 01:45:19;;;;;;;4.82;3.33;;;;;;;;;;5029991;28;20061;-70
2023/10/22 01:47:46;;;;;;;4.57;3.35;;;;;;;;;;5030948;28;20104;-69
2023/10/22 01:50:13;;;;;;;14.52;6.07;;;;;;;;;;5041404;28;20042;-70
2023/10/22 01:52:39;;;;;;;15.05;6.13;;;;;;;;;;5040271;28;20672;-70
2023/10/22 01:55:06;;;;;;;10.80;5.13;;;;;;;;;;5041757;28;20050;-70
2023/10/22 01:57:33;;;;;;;8.35;4.40;;;;;;;;;;5040893;28;20102;-70
2023/10/22 01:59:59;;;;;;;7.45;3.90;;;;;;;;;;5045382;28;20041;-70
2023/10/22 02:02:26;;;;;;;10.18;3.72;;;;;;;;;;5033951;28;20052;-69
2023/10/22 02:04:53;;;;;;;3.85;2.75;;;;;;;;;;5042746;28;20491;-70
2023/10/22 02:07:19;;;;;;;4.05;2.90;;;;;;;;;;5030031;28;20115;-70
2023/10/22 02:09:46;;;;;;;9.40;3.28;;;;;;;;;;5042124;28;20494;-69
2023/10/22 02:12:12;;;;;;;7.70;3.55;;;;;;;;;;5033269;28;20478;-69
2023/10/22 02:14:39;;;;;;;7.63;3.65;;;;;;;;;;5037812;28;20050;-69
2023/10/22 02:17:06;;;;;;;6.55;2.97;;;;;;;;;;5041760;28;20580;-70
2023/10/22 02:19:32;;;;;;;6.75;4.10;;;;;;;;;;5037835;28;20497;-69
2023/10/22 02:21:58;;;;;;;5.15;3.65;;;;;;;;;;5027374;28;20053;-69
2023/10/22 02:24:28;;;;;;;6.20;4.07;;;;;;;;;;5039426;28;20107;-69
2023/10/22 02:26:54;;;;;;;6.68;3.28;;;;;;;;;;5045117;28;20132;-69
2023/10/22 02:29:21;;;;;;;5.00;3.67;;;;;;;;;;5035473;28;20049;-69
2023/10/22 02:31:47;;;;;;;5.35;3.88;;;;;;;;;;5038732;28;20057;-70
2023/10/22 02:34:14;;;;;;;6.25;4.10;;;;;;;;;;5041595;28;20558;-69
2023/10/22 02:36:40;;;;;;;6.32;3.92;;;;;;;;;;5046687;28;20096;-69
2023/10/22 02:39:08;;;;;;;7.68;4.40;;;;;;;;;;5048119;28;20060;-70
2023/10/22 02:41:35;;;;;;;6.13;4.70;;;;;;;;;;5036458;28;20049;-69
2023/10/22 02:44:01;;;;;;;9.25;4.70;;;;;;;;;;5041893;28;20057;-69
2023/10/22 02:46:28;;;;;;;9.80;4.13;;;;;;;;;;5049030;28;20095;-69
2023/10/22 02:48:54;;;;;;;7.47;3.90;;;;;;;;;;5048443;28;20256;-69
2023/10/22 02:51:22;;;;;;;6.30;4.50;;;;;;;;;;5036778;28;20048;-70
2023/10/22 02:53:48;;;;;;;9.20;4.85;;;;;;;;;;5041223;28;20186;-69
2023/10/22 02:56:15;;;;;;;7.63;4.70;;;;;;;;;;5034553;28;20087;-69
2023/10/22 02:58:42;;;;;;;8.55;4.70;;;;;;;;;;5048623;28;20057;-70
2023/10/22 03:01:09;;;;;;;7.70;4.55;;;;;;;;;;5044185;28;20126;-69
2023/10/22 03:03:39;;;;;;;10.15;4.55;;;;;;;;;;5048951;28;20041;-70
2023/10/22 03:06:07;;;;;;;8.57;5.60;;;;;;;;;;5034933;28;20075;-69
2023/10/22 03:08:34;;;;;;;7.15;4.63;;;;;;;;;;5034576;28;20099;-69
2023/10/22 03:11:01;;;;;;;7.47;4.90;;;;;;;;;;5040413;28;20524;-69
2023/10/22 03:13:27;;;;;;;5.80;4.55;;;;;;;;;;5063610;28;20080;-69
2023/10/22 03:15:54;;;;;;;8.65;4.85;;;;;;;;;;5038279;28;20502;-69
2023/10/22 03:18:20;;;;;;;8.07;5.28;;;;;;;;;;5046223;28;20581;-69
2023/10/22 03:20:47;;;;;;;6.78;4.55;;;;;;;;;;5028864;28;20045;-70
2023/10/22 03:23:13;;;;;;;6.30;4.70;;;;;;;;;;5039428;28;20111;-69
2023/10/22 03:25:40;;;;;;;9.27;4.75;;;;;;;;;;5038013;28;20519;-69
2023/10/22 03:28:06;;;;;;;9.45;4.55;;;;;;;;;;5042906;28;20095;-69
2023/10/22 03:30:37;;;;;;;8.32;4.75;;;;;;;;;;5030965;28;20080;-70
2023/10/22 03:33:04;;;;;;;8.10;5.18;;;;;;;;;;5033286;28;20052;-70
2023/10/22 03:35:31;;;;;;;12.10;4.88;;;;;;;;;;5043199;28;20049;-69
2023/10/22 03:38:01;;;;;;;9.90;4.97;;;;;;;;;;5043825;28;20544;-69
2023/10/22 03:40:27;;;;;;;8.43;5.15;;;;;;;;;;5034598;28;20085;-69
2023/10/22 03:42:54;;;;;;;7.40;5.35;;;;;;;;;;5028238;28;20064;-70
2023/10/22 03:45:20;;;;;;;11.30;5.82;;;;;;;;;;5045206;28;20135;-70
2023/10/22 03:47:47;;;;;;;8.70;5.25;;;;;;;;;;5052891;28;20127;-70
2023/10/22 03:50:14;;;;;;;9.82;5.05;;;;;;;;;;5041725;28;20367;-70
2023/10/22 03:52:40;;;;;;;7.75;5.20;;;;;;;;;;5044287;28;20095;-70
2023/10/22 03:55:09;;;;;;;7.13;4.85;;;;;;;;;;5041933;28;20114;-71
2023/10/22 03:57:37;;;;;;;8.50;4.70;;;;;;;;;;5036773;28;20044;-70
2023/10/22 04:00:07;;;;;;;9.38;4.95;;;;;;;;;;5040428;28;20050;-69
2023/10/22 04:02:34;;;;;;;9.30;4.68;;;;;;;;;;5045986;28;20129;-70
2023/10/22 04:05:00;;;;;;;6.97;5.50;;;;;;;;;;5038443;28;20037;-70
2023/10/22 04:07:27;;;;;;;7.78;5.07;;;;;;;;;;5039592;28;20212;-71
2023/10/22 04:09:53;;;;;;;7.55;4.97;;;;;;;;;;5034808;28;20050;-70
2023/10/22 04:12:22;;;;;;;6.03;4.38;;;;;;;;;;5046215;28;20044;-71
2023/10/22 04:14:48;;;;;;;7.68;4.43;;;;;;;;;;5037584;28;20044;-70
2023/10/22 04:17:15;;;;;;;6.72;4.70;;;;;;;;;;5037616;28;20056;-70
2023/10/22 04:19:41;;;;;;;6.05;4.82;;;;;;;;;;5042601;28;20383;-70
2023/10/22 04:22:07;;;;;;;10.82;4.18;;;;;;;;;;5045603;28;20080;-71
2023/10/22 04:24:34;;;;;;;6.35;4.70;;;;;;;;;;5031328;28;20584;-73
2023/10/22 04:27:00;;;;;;;6.22;4.00;;;;;;;;;;5034383;28;20555;-70
2023/10/22 04:29:27;;;;;;;7.25;4.88;;;;;;;;;;5041975;28;20052;-70
2023/10/22 04:31:53;;;;;;;6.47;4.78;;;;;;;;;;5043085;28;20056;-70
2023/10/22 04:34:20;;;;;;;6.68;5.15;;;;;;;;;;5046993;28;20495;-71
2023/10/22 04:36:46;;;;;;;5.70;4.03;;;;;;;;;;5031270;28;20129;-70
2023/10/22 04:39:13;;;;;;;10.68;4.65;;;;;;;;;;5040823;28;20702;-70
2023/10/22 04:41:39;;;;;;;8.70;4.00;;;;;;;;;;5031333;28;20563;-70
2023/10/22 04:44:06;;;;;;;9.65;4.28;;;;;;;;;;5046431;28;20044;-70
2023/10/22 04:46:32;;;;;;;11.80;5.10;;;;;;;;;;5041129;28;20128;-70
2023/10/22 04:48:59;;;;;;;7.00;4.80;;;;;;;;;;5046035;28;20757;-70
2023/10/22 04:51:25;;;;;;;6.82;4.53;;;;;;;;;;5032762;28;20408;-71
2023/10/22 04:53:52;;;;;;;8.55;4.22;;;;;;;;;;5045971;28;20363;-70
2023/10/22 04:56:18;;;;;;;8.95;4.68;;;;;;;;;;5038013;28;20657;-70
2023/10/22 04:58:45;;;;;;;9.55;4.88;;;;;;;;;;5043647;28;20068;-69
2023/10/22 05:01:11;;;;;;;8.13;4.57;;;;;;;;;;5036907;28;20133;-71
2023/10/22 05:03:38;;;;;;;6.05;4.60;;;;;;;;;;5042883;28;20041;-70
2023/10/22 05:06:06;;;;;;;9.05;4.70;;;;;;;;;;5026494;28;20053;-69
2023/10/22 05:08:36;;;;;;;10.23;5.07;;;;;;;;;;5034772;28;20041;-70
2023/10/22 05:11:05;;;;;;;8.30;5.40;;;;;;;;;;5033557;28;20053;-70
2023/10/22 05:13:32;;;;;;;14.50;5.40;;;;;;;;;;5034901;28;20075;-69
2023/10/22 05:15:58;;;;;;;7.68;5.13;;;;;;;;;;5034357;28;20429;-69
2023/10/22 05:18:26;;;;;;;11.27;4.30;;;;;;;;;;5030249;28;20049;-70
2023/10/22 05:20:53;;;;;;;9.27;5.05;;;;;;;;;;5040398;28;20048;-71
2023/10/22 05:23:19;;;;;;;6.72;4.60;;;;;;;;;;5038506;28;20084;-69
2023/10/22 05:25:46;;;;;;;10.60;5.38;;;;;;;;;;5033604;28;20137;-73
2023/10/22 05:28:12;;;;;;;7.22;4.55;;;;;;;;;;5043315;28;20057;-70
2023/10/22 05:30:39;;;;;;;8.95;5.63;;;;;;;;;;5040001;28;20099;-70
2023/10/22 05:33:05;;;;;;;8.73;5.40;;;;;;;;;;5035787;28;20132;-71
2023/10/22 05:35:34;;;;;;;7.57;5.03;;;;;;;;;;5037359;28;20144;-69
2023/10/22 05:38:02;;;;;;;12.23;5.88;;;;;;;;;;5044473;28;20069;-70
2023/10/22 05:40:34;;;;;;;11.45;5.50;;;;;;;;;;5043065;28;20049;-70
2023/10/22 05:43:01;;;;;;;7.90;5.03;;;;;;;;;;5046174;28;20037;-71
2023/10/22 05:45:27;;;;;;;8.85;5.63;;;;;;;;;;5033393;28;20077;-70
2023/10/22 05:47:53;;;;;;;8.57;5.53;;;;;;;;;;5061450;28;20464;-69
2023/10/22 05:50:20;;;;;;;8.70;5.18;;;;;;;;;;5032291;28;20367;-69
2023/10/22 05:52:50;;;;;;;9.07;5.32;;;;;;;;;;5037427;28;20088;-69
2023/10/22 05:55:17;;;;;;;8.02;5.18;;;;;;;;;;5052281;28;20057;-70
2023/10/22 05:57:43;;;;;;;6.70;4.63;;;;;;;;;;5031533;28;20052;-71
2023/10/22 06:00:11;;;;;;;11.70;6.03;;;;;;;;;;5032498;28;20084;-71
2023/10/22 06:02:38;;;;;;;8.20;4.88;;;;;;;;;;5038520;28;20448;-69
2023/10/22 06:05:07;;;;;;;8.05;5.60;;;;;;;;;;5042099;28;20045;-70
2023/10/22 06:07:49;;;;;;;7.43;5.15;;;;;;;;;;5041132;28;20045;-70
2023/10/22 06:10:15;;;;;;;10.20;4.85;;;;;;;;;;5049612;28;20122;-69
2023/10/22 06:12:41;;;;;;;6.20;4.57;;;;;;;;;;5041835;28;20140;-69
2023/10/22 06:15:08;;;;;;;12.75;5.53;;;;;;;;;;5043963;28;20072;-69
2023/10/22 06:17:35;;;;;;;6.15;4.93;;;;;;;;;;5039585;28;20582;-69
2023/10/22 06:20:05;;;;;;;6.55;3.78;;;;;;;;;;5045239;28;20052;-71
2023/10/22 06:22:31;;;;;;;9.77;4.88;;;;;;;;;;5044725;28;20493;-69
2023/10/22 06:24:57;;;;;;;11.57;5.43;;;;;;;;;;5043283;28;20095;-70
2023/10/22 06:27:24;;;;;;;7.32;4.50;;;;;;;;;;5037138;28;20084;-71
2023/10/22 06:29:53;;;;;;;5.88;4.32;;;;;;;;;;5046214;28;20725;-69
2023/10/22 06:32:20;;;;;;;6.63;4.22;;;;;;;;;;5046471;28;20107;-70
2023/10/22 06:34:47;;;;;;;8.23;5.15;;;;;;;;;;5047233;28;20042;-69
2023/10/22 06:37:13;;;;;;;7.68;4.53;;;;;;;;;;5037771;28;20131;-69
2023/10/22 06:39:40;;;;;;;11.57;4.40;;;;;;;;;;5043077;28;20518;-69
2023/10/22 06:42:06;;;;;;;6.05;4.20;;;;;;;;;;5045415;28;20502;-70
2023/10/22 06:44:33;;;;;;;6.90;5.00;;;;;;;;;;5043754;28;20049;-69
2023/10/22 06:46:59;;;;;;;12.43;4.57;;;;;;;;;;5028632;28;20048;-68
2023/10/22 06:49:26;;;;;;;7.88;4.82;;;;;;;;;;5028677;28;20125;-70
2023/10/22 06:51:52;;;;;;;10.18;5.30;;;;;;;;;;5045463;28;20677;-69
2023/10/22 06:54:21;;;;;;;6.05;4.88;;;;;;;;;;5036528;28;20053;-70
2023/10/22 06:56:47;;;;;;;11.90;4.60;;;;;;;;;;5038853;28;20053;-69
2023/10/22 06:59:15;;;;;;;9.13;4.20;;;;;;;;;;5042252;28;20136;-69
2023/10/22 07:01:41;;;;;;;10.10;4.32;;;;;;;;;;5045289;28;20077;-69
2023/10/22 07:04:08;;;;;;;19.92;10.95;;;;;;;;;;5048727;28;20076;-70
2023/10/22 07:06:34;;;;;;;14.65;7.65;;;;;;;;;;5039897;28;20052;-69
2023/10/22 07:09:01;;;;;;;13.90;6.10;;;;;;;;;;5048203;28;20076;-69
2023/10/22 07:11:33;;;;;;;7.57;4.35;;;;;;;;;;5033601;28;20042;-70
2023/10/22 07:13:59;;;;;;;11.98;5.40;;;;;;;;;;5048914;28;20099;-69
2023/10/22 07:16:26;;;;;;;13.50;4.32;;;;;;;;;;5042872;28;20073;-70
2023/10/22 07:18:52;;;;;;;11.32;3.92;;;;;;;;;;5048514;28;20061;-70
2023/10/22 07:21:19;;;;;;;7.25;4.72;;;;;;;;;;5033148;28;20042;-69
2023/10/22 07:23:46;;;;;;;6.13;3.97;;;;;;;;;;5047047;28;20045;-69
2023/10/22 07:26:12;;;;;;;8.80;5.35;;;;;;;;;;5040501;28;20088;-70
2023/10/22 07:28:41;;;;;;;5.47;4.57;;;;;;;;;;5043521;28;20045;-69
2023/10/22 07:31:09;;;;;;;7.80;4.60;;;;;;;;;;5036566;28;20048;-68
2023/10/22 07:33:35;;;;;;;6.25;4.38;;;;;;;;;;5047604;28;20097;-70
2023/10/22 07:36:04;;;;;;;7.70;4.03;;;;;;;;;;5047214;28;20379;-69
2023/10/22 07:38:33;;;;;;;8.90;4.95;;;;;;;;;;5036466;28;20041;-69
2023/10/22 07:41:00;;;;;;;8.27;4.53;;;;;;;;;;5035765;28;20069;-70
2023/10/22 07:43:27;;;;;;;7.78;4.45;;;;;;;;;;5042586;28;20457;-70
2023/10/22 07:45:57;;;;;;;6.50;4.88;;;;;;;;;;5036068;28;20112;-70
2023/10/22 07:48:24;;;;;;;7.57;4.40;;;;;;;;;;5044193;28;20128;-70
2023/10/22 07:50:50;;;;;;;7.22;4.88;;;;;;;;;;5041308;28;20430;-70
2023/10/22 07:53:17;;;;;;;9.13;4.45;;;;;;;;;;5036732;28;20052;-68
2023/10/22 07:55:45;;;;;;;16.88;7.18;;;;;;;;;;5037016;28;20061;-69
2023/10/22 07:58:12;;;;;;;7.10;5.05;;;;;;;;;;5045264;28;20447;-70
2023/10/22 08:00:38;;;;;;;5.28;4.32;;;;;;;;;;5038322;28;20037;-68
2023/10/22 08:03:04;;;;;;;5.68;4.30;;;;;;;;;;5037305;28;20048;-70
2023/10/22 08:05:31;;;;;;;7.65;3.80;;;;;;;;;;5039098;28;20076;-69
2023/10/22 08:07:58;;;;;;;9.00;3.85;;;;;;;;;;5031252;28;20434;-68
2023/10/22 08:10:24;;;;;;;10.80;3.67;;;;;;;;;;5042051;28;20102;-71
2023/10/22 08:12:51;;;;;;;5.85;3.80;;;;;;;;;;5047087;28;20080;-70
2023/10/22 08:15:17;;;;;;;5.05;3.67;;;;;;;;;;5039829;28;20073;-68
2023/10/22 08:17:44;;;;;;;8.25;3.70;;;;;;;;;;5045129;28;20569;-69
2023/10/22 08:20:13;;;;;;;6.28;3.92;;;;;;;;;;5028775;28;20053;-69
2023/10/22 08:22:40;;;;;;;5.60;3.33;;;;;;;;;;5036497;28;20052;-70
2023/10/22 08:25:07;;;;;;;9.45;3.20;;;;;;;;;;5033931;28;20084;-69
2023/10/22 08:27:34;;;;;;;8.48;3.25;;;;;;;;;;5044147;28;20421;-69
2023/10/22 08:30:00;;;;;;;4.03;2.60;;;;;;;;;;5042629;28;20275;-68
2023/10/22 08:32:27;;;;;;;4.22;2.92;;;;;;;;;;5026909;28;20753;-69
2023/10/22 08:34:53;;;;;;;6.60;2.80;;;;;;;;;;5039031;28;20056;-69
2023/10/22 08:37:19;;;;;;;4.75;2.92;;;;;;;;;;5038377;28;20136;-69
2023/10/22 08:39:46;;;;;;;5.80;2.65;;;;;;;;;;5041359;28;20084;-70
2023/10/22 08:42:19;;;;;;;9.38;2.90;;;;;;;;;;5038000;28;20107;-69
2023/10/22 08:44:48;;;;;;;6.25;2.88;;;;;;;;;;5045713;28;20139;-69
2023/10/22 08:47:14;;;;;;;4.65;3.35;;;;;;;;;;5035718;28;20052;-69
2023/10/22 08:49:41;;;;;;;4.05;2.63;;;;;;;;;;5045378;28;20076;-69
2023/10/22 08:52:08;;;;;;;6.03;2.80;;;;;;;;;;5039184;28;20600;-69
2023/10/22 08:54:35;;;;;;;9.85;3.38;;;;;;;;;;5046674;28;20174;-69
2023/10/22 08:57:02;;;;;;;9.25;3.60;;;;;;;;;;5031068;28;20049;-69
2023/10/22 08:59:29;;;;;;;6.78;3.03;;;;;;;;;;5044399;28;20068;-69
2023/10/22 09:01:58;;;;;;;13.68;3.85;;;;;;;;;;5038748;28;20493;-69
2023/10/22 09:04:25;;;;;;;4.75;2.70;;;;;;;;;;5042640;28;20050;-69
2023/10/22 09:06:53;;;;;;;9.20;3.13;;;;;;;;;;5033223;28;20539;-70
2023/10/22 09:09:26;;;;;;;8.13;3.00;;;;;;;;;;5037771;28;20049;-69
2023/10/22 09:11:54;;;;;;;4.13;2.50;;;;;;;;;;5041045;28;20370;-69
2023/10/22 09:14:22;;;;;;;5.90;2.60;;;;;;;;;;5036898;28;20040;-71
2023/10/22 09:16:51;;;;;;;3.45;2.30;;;;;;;;;;5034987;28;20135;-70
2023/10/22 09:19:39;;;;;;;6.90;2.45;;;;;;;;;;5042597;28;20131;-69
2023/10/22 09:22:05;;;;;;;11.25;6.07;;;;;;;;;;5042168;28;20460;-70
2023/10/22 09:24:32;;;;;;;4.00;2.35;;;;;;;;;;5030260;28;20076;-69
2023/10/22 09:26:59;;;;;;;3.78;1.92;;;;;;;;;;5032094;28;20073;-69
2023/10/22 09:29:26;;;;;;;4.80;2.28;;;;;;;;;;5041342;28;20049;-70
2023/10/22 09:31:53;;;;;;;6.00;2.17;;;;;;;;;;5032859;28;20071;-70
2023/10/22 09:34:27;;;;;;;3.15;1.88;;;;;;;;;;5050041;28;20120;-70
2023/10/22 09:36:54;;;;;;;9.40;2.67;;;;;;;;;;5031498;28;20847;-71
2023/10/22 09:39:53;;;;;;;7.55;4.53;;;;;;;;;;5045794;28;20136;-68
2023/10/22 09:42:19;;;;;;;6.85;2.92;;;;;;;;;;5045340;28;20041;-70
2023/10/22 09:44:46;;;;;;;6.10;2.25;;;;;;;;;;5048259;28;20128;-69
2023/10/22 09:47:18;;;;;;;5.47;1.83;;;;;;;;;;5046729;28;20049;-70
2023/10/22 09:49:48;;;;;;;3.35;1.60;;;;;;;;;;5044625;28;20092;-70
2023/10/22 09:52:15;;;;;;;7.60;1.40;;;;;;;;;;5040529;28;20124;-70
2023/10/22 09:54:42;;;;;;;3.45;1.70;;;;;;;;;;5040411;28;20103;-69
2023/10/22 09:57:12;;;;;;;5.07;1.90;;;;;;;;;;5048347;28;20140;-70
2023/10/22 09:59:42;;;;;;;3.03;1.45;;;;;;;;;;5043211;28;20049;-69
2023/10/22 10:02:13;;;;;;;3.35;1.40;;;;;;;;;;5041651;28;20130;-69
2023/10/22 10:04:42;;;;;;;9.73;2.22;;;;;;;;;;5048249;28;20136;-69
2023/10/22 10:07:09;;;;;;;12.57;1.80;;;;;;;;;;5043973;28;20047;-69
2023/10/22 10:09:38;;;;;;;4.38;1.48;;;;;;;;;;5036356;28;20045;-69
2023/10/22 10:12:05;;;;;;;5.68;1.75;;;;;;;;;;5039149;28;20077;-69
2023/10/22 10:14:38;;;;;;;3.83;1.02;;;;;;;;;;5047445;28;20136;-69
2023/10/22 10:17:05;;;;;;;4.47;0.80;;;;;;;;;;5035705;28;20056;-69
2023/10/22 10:19:32;;;;;;;7.40;1.17;;;;;;;;;;5049399;28;20049;-69
2023/10/22 10:21:59;;;;;;;3.78;1.50;;;;;;;;;;5032443;28;20300;-71
2023/10/22 10:24:30;;;;;;;6.30;1.10;;;;;;;;;;5046641;28;20099;-70
2023/10/22 10:26:57;;;;;;;6.78;1.30;;;;;;;;;;5036536;28;20478;-70
2023/10/22 10:29:25;;;;;;;7.00;1.88;;;;;;;;;;5049342;28;20052;-69
2023/10/22 10:31:53;;;;;;;1.75;0.70;;;;;;;;;;5030651;28;20132;-68
2023/10/22 10:34:25;;;;;;;6.05;1.10;;;;;;;;;;5049479;28;20127;-68
2023/10/22 10:36:51;;;;;;;2.15;0.65;;;;;;;;;;5038744;28;20143;-69
2023/10/22 10:39:37;;;;;;;4.13;0.90;;;;;;;;;;5047472;28;20532;-69
2023/10/22 10:42:05;;;;;;;14.45;1.95;;;;;;;;;;5032269;28;20057;-69
2023/10/22 10:44:32;;;;;;;4.63;1.58;;;;;;;;;;5042886;28;20069;-69
2023/10/22 10:47:33;;;;;;;3.85;0.98;;;;;;;;;;5028634;28;20096;-69
2023/10/22 10:50:02;;;;;;;;;;;;;;;;;;5030045;28;20069;-69
2023/10/22 10:52:30;;;;;;;2.30;0.80;;;;;;;;;;5038123;28;19924;-69
2023/10/22 10:55:01;;;;;;;29.88;15.45;;;;;;;;;;5041757;28;20149;-69
2023/10/22 10:57:37;;;;;;;3.42;1.63;;;;;;;;;;5046770;28;20067;-69
2023/10/22 11:00:09;;;;;;;5.32;0.75;;;;;;;;;;5031718;28;20280;-70
2023/10/22 11:02:43;;;;;;;3.50;0.57;;;;;;;;;;5038007;28;20122;-69
2023/10/22 11:05:10;;;;;;;3.47;1.45;;;;;;;;;;5042373;28;20049;-69
2023/10/22 11:07:36;;;;;;;3.58;0.60;;;;;;;;;;5039507;28;20093;-69
2023/10/22 11:10:07;;;;;;;2.95;0.52;;;;;;;;;;5043116;28;20133;-69
2023/10/22 11:12:33;;;;;;;4.00;0.90;;;;;;;;;;5032056;28;20431;-68
2023/10/22 11:15:00;;;;;;;4.07;0.57;;;;;;;;;;5044853;28;20073;-68
2023/10/22 11:17:29;;;;;;;3.17;1.15;;;;;;;;;;5040084;28;20319;-68
2023/10/22 11:19:56;;;;;;;5.13;0.90;;;;;;;;;;5044193;28;20057;-68
2023/10/22 11:22:23;;;;;;;3.90;1.00;;;;;;;;;;5042523;28;20049;-69
2023/10/22 11:24:51;;;;;;;1.92;0.68;;;;;;;;;;5043486;28;20055;-68
2023/10/22 11:27:19;;;;;;;4.82;0.73;;;;;;;;;;5034335;28;20552;-68
2023/10/22 11:29:49;;;;;;;5.50;0.80;;;;;;;;;;5044789;28;20049;-70
2023/10/22 11:32:21;;;;;;;2.50;0.63;;;;;;;;;;5043286;28;20053;-70
2023/10/22 11:34:57;;;;;;;6.00;2.25;;;;;;;;;;5042196;28;20063;-68
2023/10/22 11:37:30;;;;;;;3.58;0.63;;;;;;;;;;5037426;28;20083;-68
2023/10/22 11:39:57;;;;;;;4.15;0.75;;;;;;;;;;5042510;28;20052;-69
2023/10/22 11:42:33;;;;;;;4.32;0.90;;;;;;;;;;5047173;28;20106;-71
2023/10/22 11:45:00;;;;;;;4.93;1.20;;;;;;;;;;5039098;28;20521;-69
2023/10/22 11:47:33;;;;;;;4.45;0.73;;;;;;;;;;5040000;28;20134;-69
2023/10/22 11:50:02;;;;;;;3.22;0.70;;;;;;;;;;5031646;28;20088;-69
2023/10/22 11:52:37;;;;;;;2.67;0.80;;;;;;;;;;5045704;28;20127;-69
2023/10/22 11:55:04;;;;;;;4.55;0.80;;;;;;;;;;5032445;28;20086;-69
2023/10/22 11:57:40;;;;;;;4.55;1.08;;;;;;;;;;5038959;28;20042;-69
2023/10/22 12:00:09;;;;;;;4.85;0.60;;;;;;;;;;5042309;28;20565;-68
2023/10/22 12:02:36;;;;;;;2.42;0.50;;;;;;;;;;5036321;28;20123;-68
2023/10/22 12:05:04;;;;;;;2.28;0.90;;;;;;;;;;5042631;28;20060;-69
2023/10/22 12:07:32;;;;;;;2.92;0.77;;;;;;;;;;5044470;28;20095;-69
2023/10/22 12:09:59;;;;;;;5.13;1.10;;;;;;;;;;5042960;28;20125;-70
2023/10/22 12:12:25;;;;;;;3.53;1.55;;;;;;;;;;5035423;28;20088;-68
2023/10/22 12:14:51;;;;;;;4.38;1.02;;;;;;;;;;5043871;28;20048;-69
2023/10/22 12:17:18;;;;;;;7.18;1.10;;;;;;;;;;5044167;28;20045;-69
2023/10/22 12:19:48;;;;;;;2.90;0.80;;;;;;;;;;5043883;28;20047;-69
2023/10/22 12:22:16;;;;;;;6.50;1.20;;;;;;;;;;5037119;28;20094;-70
2023/10/22 12:24:43;;;;;;;2.78;0.88;;;;;;;;;;5043029;28;20068;-69
2023/10/22 12:27:13;;;;;;;7.65;1.30;;;;;;;;;;5045867;28;20088;-70
2023/10/22 12:29:40;;;;;;;4.25;0.80;;;;;;;;;;5045177;28;20140;-69
2023/10/22 12:32:06;;;;;;;3.25;1.00;;;;;;;;;;5038428;28;20073;-70
2023/10/22 12:34:33;;;;;;;3.58;1.27;;;;;;;;;;5034264;28;20046;-69
2023/10/22 12:37:00;;;;;;;5.40;0.90;;;;;;;;;;5030317;28;20079;-70
2023/10/22 12:39:27;;;;;;;3.75;0.77;;;;;;;;;;5039004;28;20067;-69
2023/10/22 12:41:53;;;;;;;2.88;1.27;;;;;;;;;;5038540;28;20133;-70
2023/10/22 12:44:24;;;;;;;6.53;0.70;;;;;;;;;;5044868;28;20641;-68
2023/10/22 12:46:51;;;;;;;;;;;;;;;;;;5032605;28;20073;-68
2023/10/22 12:49:18;;;;;;;2.38;0.73;;;;;;;;;;5040970;28;19932;-68
2023/10/22 12:51:45;;;;;;;2.20;0.60;;;;;;;;;;5038179;28;20673;-69
2023/10/22 12:54:13;;;;;;;1.17;0.50;;;;;;;;;;5043289;28;20045;-69
2023/10/22 12:56:41;;;;;;;3.97;0.70;;;;;;;;;;5030689;28;20060;-69
2023/10/22 12:59:08;;;;;;;3.90;1.10;;;;;;;;;;5035526;28;20584;-70
2023/10/22 13:01:35;;;;;;;3.17;0.70;;;;;;;;;;5051332;28;20530;-70
2023/10/22 13:04:03;;;;;;;3.97;0.65;;;;;;;;;;5040005;28;20041;-73
2023/10/22 13:06:31;;;;;;;6.85;1.42;;;;;;;;;;5026866;28;20112;-73
2023/10/22 13:09:00;;;;;;;6.45;1.13;;;;;;;;;;5036155;28;20057;-72
2023/10/22 13:11:31;;;;;;;2.50;0.70;;;;;;;;;;5031412;28;20592;-72
2023/10/22 13:13:57;;;;;;;8.57;1.35;;;;;;;;;;5034521;28;20041;-73
2023/10/22 13:16:24;;;;;;;3.90;0.90;;;;;;;;;;5033105;28;20053;-75
2023/10/22 13:18:50;;;;;;;1.50;0.60;;;;;;;;;;5033736;28;20056;-74
2023/10/22 13:21:17;;;;;;;2.30;0.65;;;;;;;;;;5026887;28;20057;-73
2023/10/22 13:23:43;;;;;;;5.28;1.25;;;;;;;;;;5043046;28;20068;-74
2023/10/22 13:26:10;;;;;;;5.13;0.90;;;;;;;;;;5031364;28;20124;-73
2023/10/22 13:28:36;;;;;;;7.95;1.35;;;;;;;;;;5032320;28;20049;-74
2023/10/22 13:31:02;;;;;;;6.40;1.23;;;;;;;;;;5029019;28;20080;-73
2023/10/22 13:33:29;;;;;;;5.97;1.02;;;;;;;;;;5029761;28;20755;-73
2023/10/22 13:35:56;;;;;;;3.90;0.95;;;;;;;;;;5042228;28;20507;-74
2023/10/22 13:38:23;;;;;;;2.80;0.52;;;;;;;;;;5033697;28;20045;-71
2023/10/22 13:40:50;;;;;;;5.13;1.45;;;;;;;;;;5036625;28;20055;-69
2023/10/22 13:43:16;;;;;;;6.60;1.10;;;;;;;;;;5031202;28;20502;-70
2023/10/22 13:45:46;;;;;;;1.90;0.75;;;;;;;;;;5041999;28;20069;-74
2023/10/22 13:48:15;;;;;;;2.30;0.82;;;;;;;;;;5042877;28;20049;-69
2023/10/22 13:50:42;;;;;;;4.32;0.82;;;;;;;;;;5036877;28;20601;-68
2023/10/22 13:53:10;;;;;;;3.05;0.80;;;;;;;;;;5037928;28;20046;-70
2023/10/22 13:55:37;;;;;;;2.35;0.80;;;;;;;;;;5024703;28;20537;-68
2023/10/22 13:58:03;;;;;;;4.28;1.08;;;;;;;;;;5036855;28;20049;-66
2023/10/22 14:00:29;;;;;;;6.03;1.85;;;;;;;;;;5028031;28;20122;-66
2023/10/22 14:02:56;;;;;;;7.47;1.20;;;;;;;;;;5030595;28;20099;-69
2023/10/22 14:05:23;;;;;;;9.30;0.80;;;;;;;;;;5035612;28;20041;-68
2023/10/22 14:07:49;;;;;;;2.13;0.90;;;;;;;;;;5038134;28;20048;-67
2023/10/22 14:10:16;;;;;;;9.65;1.58;;;;;;;;;;5035098;28;20037;-69
2023/10/22 14:12:42;;;;;;;3.63;0.88;;;;;;;;;;5035346;28;20088;-70
2023/10/22 14:15:09;;;;;;;4.72;1.05;;;;;;;;;;5030454;28;20084;-68
2023/10/22 14:17:38;;;;;;;6.85;1.40;;;;;;;;;;5040306;28;20415;-69
2023/10/22 14:20:05;;;;;;;7.47;0.70;;;;;;;;;;5032551;28;20041;-68
2023/10/22 14:22:31;;;;;;;8.50;1.48;;;;;;;;;;5042030;28;20045;-70
2023/10/22 14:24:57;;;;;;;4.97;1.58;;;;;;;;;;5028870;28;20121;-68
2023/10/22 14:27:24;;;;;;;4.07;1.00;;;;;;;;;;5029643;28;20720;-68
2023/10/22 14:29:51;;;;;;;3.65;1.42;;;;;;;;;;5038545;28;20127;-70
2023/10/22 14:32:17;;;;;;;2.67;0.90;;;;;;;;;;5029792;28;20044;-69
2023/10/22 14:34:44;;;;;;;5.75;0.70;;;;;;;;;;5030451;28;20045;-68
2023/10/22 14:37:10;;;;;;;19.40;1.08;;;;;;;;;;5034533;28;20068;-68
2023/10/22 14:39:37;;;;;;;3.90;0.93;;;;;;;;;;5039513;28;20132;-70
2023/10/22 14:42:04;;;;;;;8.57;1.33;;;;;;;;;;5033555;28;20053;-68
2023/10/22 14:44:30;;;;;;;3.15;0.80;;;;;;;;;;5039732;28;20066;-67